sensor_id;sensor_type;location;lat;lon;timestamp;P1;durP1;ratioP1;P2;durP2;ratioP2
48205;SDS011;33995;48.202;16.260;2023-05-07T00:01:20;3.50;;;3.20;;
48205;SDS011;33995;48.202;16.260;2023-05-07T00:03:49;3.30;;;3.00;;
48205;SDS011;33995;48.202;16.260;2023-05-07T00:06:16;3.80;;;3.50;;
48205;SDS011;33995;48.202;16.260;2023-05-07T00:08:43;2.97;;;2.77;;
48205;SDS011;33995;48.202;16.260;2023-05-07T00:11:10;3.70;;;3.40;;
48205;SDS011;33995;48.202;16.260;2023-05-07T00:13:37;3.53;;;3.23;;
48205;SDS011;33995;48.202;16.260;2023-05-07T00:16:04;3.00;;;2.70;;
48205;SDS011;33995;48.202;16.260;2023-05-07T00:18:31;2.90;;;2.70;;
48205;SDS011;33995;48.202;16.260;2023-05-07T00:20:58;3.10;;;2.80;;
48205;SDS011;33995;48.202;16.260;2023-05-07T00:23:25;2.70;;;2.50;;
48205;SDS011;33995;48.202;16.260;2023-05-07T00:25:52;3.10;;;2.80;;
48205;SDS011;33995;48.202;16.260;2023-05-07T00:28:20;2.73;;;2.53;;
48205;SDS011;33995;48.202;16.260;2023-05-07T00:30:47;2.80;;;2.60;;
48205;SDS011;33995;48.202;16.260;2023-05-07T00:33:15;3.00;;;2.80;;
48205;SDS011;33995;48.202;16.260;2023-05-07T00:35:43;2.63;;;2.43;;
48205;SDS011;33995;48.202;16.260;2023-05-07T00:38:10;2.80;;;2.60;;
48205;SDS011;33995;48.202;16.260;2023-05-07T00:40:37;3.00;;;2.80;;
48205;SDS011;33995;48.202;16.260;2023-05-07T00:43:07;2.80;;;2.47;;
48205;SDS011;33995;48.202;16.260;2023-05-07T00:45:35;3.00;;;2.70;;
48205;SDS011;33995;48.202;16.260;2023-05-07T00:48:02;2.50;;;2.30;;
48205;SDS011;33995;48.202;16.260;2023-05-07T00:50:30;2.83;;;2.50;;
48205;SDS011;33995;48.202;16.260;2023-05-07T00:53:01;2.63;;;2.43;;
48205;SDS011;33995;48.202;16.260;2023-05-07T00:55:29;2.70;;;2.50;;
48205;SDS011;33995;48.202;16.260;2023-05-07T00:57:57;3.13;;;2.83;;
48205;SDS011;33995;48.202;16.260;2023-05-07T01:00:24;2.47;;;2.27;;
48205;SDS011;33995;48.202;16.260;2023-05-07T01:02:51;2.90;;;2.67;;
48205;SDS011;33995;48.202;16.260;2023-05-07T01:05:19;2.50;;;2.30;;
48205;SDS011;33995;48.202;16.260;2023-05-07T01:07:48;2.67;;;2.47;;
48205;SDS011;33995;48.202;16.260;2023-05-07T01:10:17;2.40;;;2.20;;
48205;SDS011;33995;48.202;16.260;2023-05-07T01:12:45;2.50;;;2.30;;
48205;SDS011;33995;48.202;16.260;2023-05-07T01:15:14;2.50;;;2.30;;
48205;SDS011;33995;48.202;16.260;2023-05-07T01:17:42;2.53;;;2.33;;
48205;SDS011;33995;48.202;16.260;2023-05-07T01:20:19;2.67;;;2.47;;
48205;SDS011;33995;48.202;16.260;2023-05-07T01:22:51;2.50;;;2.30;;
48205;SDS011;33995;48.202;16.260;2023-05-07T01:25:18;2.50;;;2.30;;
48205;SDS011;33995;48.202;16.260;2023-05-07T01:27:49;2.30;;;2.20;;
48205;SDS011;33995;48.202;16.260;2023-05-07T01:30:22;3.20;;;2.53;;
48205;SDS011;33995;48.202;16.260;2023-05-07T01:33:00;3.60;;;2.10;;
48205;SDS011;33995;48.202;16.260;2023-05-07T01:35:38;2.70;;;2.50;;
48205;SDS011;33995;48.202;16.260;2023-05-07T01:38:08;2.60;;;2.40;;
48205;SDS011;33995;48.202;16.260;2023-05-07T01:40:35;2.90;;;2.70;;
48205;SDS011;33995;48.202;16.260;2023-05-07T01:43:05;2.60;;;2.27;;
48205;SDS011;33995;48.202;16.260;2023-05-07T01:45:34;2.63;;;2.43;;
48205;SDS011;33995;48.202;16.260;2023-05-07T01:48:05;2.50;;;2.30;;
48205;SDS011;33995;48.202;16.260;2023-05-07T01:50:33;2.60;;;2.13;;
48205;SDS011;33995;48.202;16.260;2023-05-07T01:53:02;3.30;;;2.40;;
48205;SDS011;33995;48.202;16.260;2023-05-07T01:55:29;2.57;;;2.37;;
48205;SDS011;33995;48.202;16.260;2023-05-07T01:57:57;2.73;;;2.40;;
48205;SDS011;33995;48.202;16.260;2023-05-07T02:00:24;2.40;;;2.20;;
48205;SDS011;33995;48.202;16.260;2023-05-07T02:02:52;2.53;;;2.33;;
48205;SDS011;33995;48.202;16.260;2023-05-07T02:05:28;2.77;;;2.57;;
48205;SDS011;33995;48.202;16.260;2023-05-07T02:08:05;4.17;;;2.20;;
48205;SDS011;33995;48.202;16.260;2023-05-07T02:10:32;2.80;;;2.50;;
48205;SDS011;33995;48.202;16.260;2023-05-07T02:12:59;2.50;;;2.30;;
48205;SDS011;33995;48.202;16.260;2023-05-07T02:15:28;2.60;;;2.27;;
48205;SDS011;33995;48.202;16.260;2023-05-07T02:20:31;2.70;;;2.50;;
48205;SDS011;33995;48.202;16.260;2023-05-07T02:23:01;3.43;;;2.40;;
48205;SDS011;33995;48.202;16.260;2023-05-07T02:25:31;2.80;;;2.60;;
48205;SDS011;33995;48.202;16.260;2023-05-07T02:28:00;2.73;;;2.53;;
48205;SDS011;33995;48.202;16.260;2023-05-07T02:30:47;2.40;;;2.20;;
48205;SDS011;33995;48.202;16.260;2023-05-07T02:33:15;2.63;;;2.40;;
48205;SDS011;33995;48.202;16.260;2023-05-07T02:35:43;2.80;;;2.60;;
48205;SDS011;33995;48.202;16.260;2023-05-07T02:38:14;2.60;;;2.40;;
48205;SDS011;33995;48.202;16.260;2023-05-07T02:40:42;3.10;;;2.60;;
48205;SDS011;33995;48.202;16.260;2023-05-07T02:43:10;3.40;;;2.80;;
48205;SDS011;33995;48.202;16.260;2023-05-07T02:45:40;2.90;;;2.70;;
48205;SDS011;33995;48.202;16.260;2023-05-07T02:48:08;2.73;;;2.53;;
48205;SDS011;33995;48.202;16.260;2023-05-07T02:50:37;3.03;;;2.83;;
48205;SDS011;33995;48.202;16.260;2023-05-07T02:53:04;3.00;;;2.67;;
48205;SDS011;33995;48.202;16.260;2023-05-07T02:55:33;3.17;;;2.80;;
48205;SDS011;33995;48.202;16.260;2023-05-07T02:58:01;3.10;;;2.67;;
48205;SDS011;33995;48.202;16.260;2023-05-07T03:00:34;2.90;;;2.70;;
48205;SDS011;33995;48.202;16.260;2023-05-07T03:03:28;3.40;;;2.87;;
48205;SDS011;33995;48.202;16.260;2023-05-07T03:05:58;3.00;;;2.80;;
48205;SDS011;33995;48.202;16.260;2023-05-07T03:08:27;2.93;;;2.70;;
48205;SDS011;33995;48.202;16.260;2023-05-07T03:10:54;6.27;;;2.97;;
48205;SDS011;33995;48.202;16.260;2023-05-07T03:13:21;2.90;;;2.70;;
48205;SDS011;33995;48.202;16.260;2023-05-07T03:15:49;2.93;;;2.70;;
48205;SDS011;33995;48.202;16.260;2023-05-07T03:18:17;3.70;;;3.10;;
48205;SDS011;33995;48.202;16.260;2023-05-07T03:20:44;3.28;;;3.08;;
48205;SDS011;33995;48.202;16.260;2023-05-07T03:23:12;3.43;;;2.97;;
48205;SDS011;33995;48.202;16.260;2023-05-07T03:25:41;3.80;;;2.80;;
48205;SDS011;33995;48.202;16.260;2023-05-07T03:28:09;3.17;;;2.90;;
48205;SDS011;33995;48.202;16.260;2023-05-07T03:30:42;3.47;;;3.17;;
48205;SDS011;33995;48.202;16.260;2023-05-07T03:33:09;3.40;;;3.10;;
48205;SDS011;33995;48.202;16.260;2023-05-07T03:35:37;3.60;;;3.30;;
48205;SDS011;33995;48.202;16.260;2023-05-07T03:38:04;3.20;;;2.90;;
48205;SDS011;33995;48.202;16.260;2023-05-07T03:40:35;3.40;;;3.10;;
48205;SDS011;33995;48.202;16.260;2023-05-07T03:43:03;5.87;;;3.10;;
48205;SDS011;33995;48.202;16.260;2023-05-07T03:45:33;3.07;;;2.87;;
48205;SDS011;33995;48.202;16.260;2023-05-07T03:48:10;3.50;;;3.20;;
48205;SDS011;33995;48.202;16.260;2023-05-07T03:50:37;4.27;;;3.43;;
48205;SDS011;33995;48.202;16.260;2023-05-07T03:53:05;3.70;;;3.40;;
48205;SDS011;33995;48.202;16.260;2023-05-07T03:55:37;3.47;;;3.20;;
48205;SDS011;33995;48.202;16.260;2023-05-07T03:58:05;3.73;;;3.43;;
48205;SDS011;33995;48.202;16.260;2023-05-07T04:00:33;3.90;;;3.50;;
48205;SDS011;33995;48.202;16.260;2023-05-07T04:03:16;4.27;;;3.97;;
48205;SDS011;33995;48.202;16.260;2023-05-07T04:05:44;4.47;;;3.70;;
48205;SDS011;33995;48.202;16.260;2023-05-07T04:08:11;4.20;;;3.90;;
48205;SDS011;33995;48.202;16.260;2023-05-07T04:10:45;5.00;;;4.10;;
48205;SDS011;33995;48.202;16.260;2023-05-07T04:13:13;4.70;;;4.30;;
48205;SDS011;33995;48.202;16.260;2023-05-07T04:15:41;5.20;;;4.80;;
48205;SDS011;33995;48.202;16.260;2023-05-07T04:18:11;5.03;;;4.63;;
48205;SDS011;33995;48.202;16.260;2023-05-07T04:20:45;5.47;;;4.93;;
48205;SDS011;33995;48.202;16.260;2023-05-07T04:23:14;5.30;;;4.80;;
48205;SDS011;33995;48.202;16.260;2023-05-07T04:25:42;5.47;;;4.97;;
48205;SDS011;33995;48.202;16.260;2023-05-07T04:28:18;5.63;;;5.13;;
48205;SDS011;33995;48.202;16.260;2023-05-07T04:30:46;5.40;;;5.00;;
48205;SDS011;33995;48.202;16.260;2023-05-07T04:33:14;5.83;;;5.33;;
48205;SDS011;33995;48.202;16.260;2023-05-07T04:35:46;6.70;;;5.90;;
48205;SDS011;33995;48.202;16.260;2023-05-07T04:38:14;6.00;;;5.40;;
48205;SDS011;33995;48.202;16.260;2023-05-07T04:40:42;6.13;;;5.40;;
48205;SDS011;33995;48.202;16.260;2023-05-07T04:43:12;6.00;;;5.50;;
48205;SDS011;33995;48.202;16.260;2023-05-07T04:45:45;6.07;;;5.57;;
48205;SDS011;33995;48.202;16.260;2023-05-07T04:48:12;7.63;;;5.93;;
48205;SDS011;33995;48.202;16.260;2023-05-07T04:50:41;6.63;;;6.03;;
48205;SDS011;33995;48.202;16.260;2023-05-07T04:53:10;7.43;;;6.77;;
48205;SDS011;33995;48.202;16.260;2023-05-07T04:55:44;7.00;;;6.30;;
48205;SDS011;33995;48.202;16.260;2023-05-07T04:58:11;6.47;;;5.93;;
48205;SDS011;33995;48.202;16.260;2023-05-07T05:00:43;7.20;;;6.50;;
48205;SDS011;33995;48.202;16.260;2023-05-07T05:03:10;6.90;;;6.30;;
48205;SDS011;33995;48.202;16.260;2023-05-07T05:05:39;8.17;;;6.50;;
48205;SDS011;33995;48.202;16.260;2023-05-07T05:08:06;7.77;;;7.00;;
48205;SDS011;33995;48.202;16.260;2023-05-07T05:10:36;8.13;;;7.37;;
48205;SDS011;33995;48.202;16.260;2023-05-07T05:13:05;7.97;;;7.27;;
48205;SDS011;33995;48.202;16.260;2023-05-07T05:15:32;10.50;;;9.50;;
48205;SDS011;33995;48.202;16.260;2023-05-07T05:18:01;11.37;;;10.37;;
48205;SDS011;33995;48.202;16.260;2023-05-07T05:20:29;12.97;;;11.87;;
48205;SDS011;33995;48.202;16.260;2023-05-07T05:22:56;15.50;;;14.00;;
48205;SDS011;33995;48.202;16.260;2023-05-07T05:25:23;15.30;;;13.90;;
48205;SDS011;33995;48.202;16.260;2023-05-07T05:27:51;14.83;;;13.43;;
48205;SDS011;33995;48.202;16.260;2023-05-07T05:30:19;16.67;;;15.07;;
48205;SDS011;33995;48.202;16.260;2023-05-07T05:32:49;17.10;;;15.40;;
48205;SDS011;33995;48.202;16.260;2023-05-07T05:35:17;16.10;;;14.63;;
48205;SDS011;33995;48.202;16.260;2023-05-07T05:37:44;16.00;;;14.47;;
48205;SDS011;33995;48.202;16.260;2023-05-07T05:40:11;17.13;;;15.53;;
48205;SDS011;33995;48.202;16.260;2023-05-07T05:42:40;16.70;;;15.10;;
48205;SDS011;33995;48.202;16.260;2023-05-07T05:45:08;18.13;;;16.50;;
48205;SDS011;33995;48.202;16.260;2023-05-07T05:47:36;19.63;;;17.67;;
48205;SDS011;33995;48.202;16.260;2023-05-07T05:50:06;19.47;;;17.57;;
48205;SDS011;33995;48.202;16.260;2023-05-07T05:52:35;19.27;;;17.47;;
48205;SDS011;33995;48.202;16.260;2023-05-07T05:55:05;19.67;;;17.83;;
48205;SDS011;33995;48.202;16.260;2023-05-07T05:57:34;20.37;;;18.40;;
48205;SDS011;33995;48.202;16.260;2023-05-07T06:00:06;23.10;;;20.90;;
48205;SDS011;33995;48.202;16.260;2023-05-07T06:02:46;22.43;;;20.23;;
48205;SDS011;33995;48.202;16.260;2023-05-07T06:05:19;23.00;;;20.70;;
48205;SDS011;33995;48.202;16.260;2023-05-07T06:07:50;22.80;;;20.70;;
48205;SDS011;33995;48.202;16.260;2023-05-07T06:10:18;23.40;;;21.20;;
48205;SDS011;33995;48.202;16.260;2023-05-07T06:12:45;22.10;;;20.00;;
48205;SDS011;33995;48.202;16.260;2023-05-07T06:15:13;20.67;;;18.63;;
48205;SDS011;33995;48.202;16.260;2023-05-07T06:17:41;22.30;;;20.27;;
48205;SDS011;33995;48.202;16.260;2023-05-07T06:20:09;24.33;;;22.00;;
48205;SDS011;33995;48.202;16.260;2023-05-07T06:22:39;24.00;;;21.80;;
48205;SDS011;33995;48.202;16.260;2023-05-07T06:25:08;24.10;;;21.80;;
48205;SDS011;33995;48.202;16.260;2023-05-07T06:27:36;23.37;;;21.17;;
48205;SDS011;33995;48.202;16.260;2023-05-07T06:30:08;23.43;;;21.23;;
48205;SDS011;33995;48.202;16.260;2023-05-07T06:32:36;24.03;;;21.67;;
48205;SDS011;33995;48.202;16.260;2023-05-07T06:35:08;21.63;;;19.53;;
48205;SDS011;33995;48.202;16.260;2023-05-07T06:37:38;23.33;;;21.13;;
48205;SDS011;33995;48.202;16.260;2023-05-07T06:40:07;22.40;;;20.40;;
48205;SDS011;33995;48.202;16.260;2023-05-07T06:42:38;22.30;;;20.20;;
48205;SDS011;33995;48.202;16.260;2023-05-07T06:45:34;22.73;;;20.53;;
48205;SDS011;33995;48.202;16.260;2023-05-07T06:48:02;22.17;;;20.10;;
48205;SDS011;33995;48.202;16.260;2023-05-07T06:50:42;21.27;;;19.27;;
48205;SDS011;33995;48.202;16.260;2023-05-07T06:53:10;23.03;;;20.93;;
48205;SDS011;33995;48.202;16.260;2023-05-07T06:55:38;21.47;;;19.37;;
48205;SDS011;33995;48.202;16.260;2023-05-07T06:58:05;22.53;;;20.43;;
48205;SDS011;33995;48.202;16.260;2023-05-07T07:00:32;22.07;;;19.93;;
48205;SDS011;33995;48.202;16.260;2023-05-07T07:03:00;20.23;;;18.37;;
48205;SDS011;33995;48.202;16.260;2023-05-07T07:05:28;21.67;;;19.53;;
48205;SDS011;33995;48.202;16.260;2023-05-07T07:07:57;21.47;;;19.43;;
48205;SDS011;33995;48.202;16.260;2023-05-07T07:10:25;21.70;;;19.70;;
48205;SDS011;33995;48.202;16.260;2023-05-07T07:12:54;20.20;;;18.40;;
48205;SDS011;33995;48.202;16.260;2023-05-07T07:15:22;20.50;;;18.53;;
48205;SDS011;33995;48.202;16.260;2023-05-07T07:17:52;19.37;;;17.63;;
48205;SDS011;33995;48.202;16.260;2023-05-07T07:20:21;19.63;;;17.83;;
48205;SDS011;33995;48.202;16.260;2023-05-07T07:22:50;19.67;;;17.80;;
48205;SDS011;33995;48.202;16.260;2023-05-07T07:25:20;18.53;;;16.83;;
48205;SDS011;33995;48.202;16.260;2023-05-07T07:27:48;19.43;;;17.60;;
48205;SDS011;33995;48.202;16.260;2023-05-07T07:30:17;19.10;;;17.50;;
48205;SDS011;33995;48.202;16.260;2023-05-07T07:32:48;17.50;;;15.90;;
48205;SDS011;33995;48.202;16.260;2023-05-07T07:35:15;16.70;;;15.17;;
48205;SDS011;33995;48.202;16.260;2023-05-07T07:37:43;16.90;;;15.30;;
48205;SDS011;33995;48.202;16.260;2023-05-07T07:40:14;16.13;;;14.53;;
48205;SDS011;33995;48.202;16.260;2023-05-07T07:42:44;17.40;;;15.90;;
48205;SDS011;33995;48.202;16.260;2023-05-07T07:45:11;15.40;;;13.90;;
48205;SDS011;33995;48.202;16.260;2023-05-07T07:47:44;14.73;;;13.43;;
48205;SDS011;33995;48.202;16.260;2023-05-07T07:50:11;14.53;;;13.23;;
48205;SDS011;33995;48.202;16.260;2023-05-07T07:52:58;15.30;;;13.80;;
48205;SDS011;33995;48.202;16.260;2023-05-07T07:55:28;15.27;;;13.93;;
48205;SDS011;33995;48.202;16.260;2023-05-07T07:57:55;16.37;;;14.80;;
48205;SDS011;33995;48.202;16.260;2023-05-07T08:00:23;14.07;;;12.77;;
48205;SDS011;33995;48.202;16.260;2023-05-07T08:02:53;14.70;;;13.40;;
48205;SDS011;33995;48.202;16.260;2023-05-07T08:05:26;16.40;;;14.80;;
48205;SDS011;33995;48.202;16.260;2023-05-07T08:07:53;15.30;;;13.93;;
48205;SDS011;33995;48.202;16.260;2023-05-07T08:10:27;14.40;;;13.00;;
48205;SDS011;33995;48.202;16.260;2023-05-07T08:13:02;14.03;;;12.73;;
48205;SDS011;33995;48.202;16.260;2023-05-07T08:15:31;13.70;;;12.50;;
48205;SDS011;33995;48.202;16.260;2023-05-07T08:17:59;14.13;;;12.93;;
48205;SDS011;33995;48.202;16.260;2023-05-07T08:20:27;14.80;;;13.50;;
48205;SDS011;33995;48.202;16.260;2023-05-07T08:22:56;15.37;;;13.83;;
48205;SDS011;33995;48.202;16.260;2023-05-07T08:25:25;13.70;;;12.50;;
48205;SDS011;33995;48.202;16.260;2023-05-07T08:27:52;13.60;;;12.30;;
48205;SDS011;33995;48.202;16.260;2023-05-07T08:30:20;12.20;;;11.10;;
48205;SDS011;33995;48.202;16.260;2023-05-07T08:32:48;13.63;;;12.43;;
48205;SDS011;33995;48.202;16.260;2023-05-07T08:35:15;14.90;;;13.67;;
48205;SDS011;33995;48.202;16.260;2023-05-07T08:37:42;13.20;;;12.07;;
48205;SDS011;33995;48.202;16.260;2023-05-07T08:40:10;14.60;;;13.20;;
48205;SDS011;33995;48.202;16.260;2023-05-07T08:42:41;13.70;;;12.47;;
48205;SDS011;33995;48.202;16.260;2023-05-07T08:45:10;13.83;;;12.53;;
48205;SDS011;33995;48.202;16.260;2023-05-07T08:47:50;13.37;;;12.07;;
48205;SDS011;33995;48.202;16.260;2023-05-07T08:50:27;14.53;;;13.23;;
48205;SDS011;33995;48.202;16.260;2023-05-07T08:52:56;12.70;;;11.60;;
48205;SDS011;33995;48.202;16.260;2023-05-07T08:55:23;13.43;;;12.23;;
48205;SDS011;33995;48.202;16.260;2023-05-07T08:57:50;12.27;;;11.13;;
48205;SDS011;33995;48.202;16.260;2023-05-07T09:00:21;14.97;;;13.50;;
48205;SDS011;33995;48.202;16.260;2023-05-07T09:02:53;13.87;;;12.47;;
48205;SDS011;33995;48.202;16.260;2023-05-07T09:05:21;13.13;;;11.93;;
48205;SDS011;33995;48.202;16.260;2023-05-07T09:07:49;13.00;;;11.90;;
48205;SDS011;33995;48.202;16.260;2023-05-07T09:10:22;12.77;;;11.67;;
48205;SDS011;33995;48.202;16.260;2023-05-07T09:17:04;10.97;;;10.07;;
48205;SDS011;33995;48.202;16.260;2023-05-07T09:23:18;13.67;;;12.40;;
48205;SDS011;33995;48.202;16.260;2023-05-07T09:25:47;14.90;;;13.50;;
48205;SDS011;33995;48.202;16.260;2023-05-07T09:28:23;13.90;;;12.70;;
48205;SDS011;33995;48.202;16.260;2023-05-07T09:30:52;11.43;;;10.43;;
48205;SDS011;33995;48.202;16.260;2023-05-07T09:33:19;12.43;;;11.33;;
48205;SDS011;33995;48.202;16.260;2023-05-07T09:35:51;12.63;;;11.53;;
48205;SDS011;33995;48.202;16.260;2023-05-07T09:38:20;13.37;;;12.07;;
48205;SDS011;33995;48.202;16.260;2023-05-07T09:41:14;12.67;;;11.50;;
48205;SDS011;33995;48.202;16.260;2023-05-07T09:44:14;13.47;;;12.27;;
48205;SDS011;33995;48.202;16.260;2023-05-07T09:46:47;11.60;;;10.40;;
48205;SDS011;33995;48.202;16.260;2023-05-07T09:57:35;11.70;;;10.60;;
48205;SDS011;33995;48.202;16.260;2023-05-07T10:00:23;13.48;;;12.32;;
48205;SDS011;33995;48.202;16.260;2023-05-07T10:02:59;11.60;;;10.60;;
48205;SDS011;33995;48.202;16.260;2023-05-07T10:05:40;10.23;;;9.23;;
48205;SDS011;33995;48.202;16.260;2023-05-07T10:12:42;10.50;;;9.60;;
48205;SDS011;33995;48.202;16.260;2023-05-07T10:15:17;11.40;;;10.30;;
48205;SDS011;33995;48.202;16.260;2023-05-07T10:17:50;11.90;;;10.80;;
48205;SDS011;33995;48.202;16.260;2023-05-07T10:20:21;9.93;;;9.00;;
48205;SDS011;33995;48.202;16.260;2023-05-07T10:23:08;12.73;;;11.47;;
48205;SDS011;33995;48.202;16.260;2023-05-07T10:25:45;9.80;;;9.00;;
48205;SDS011;33995;48.202;16.260;2023-05-07T10:28:18;9.97;;;9.17;;
48205;SDS011;33995;48.202;16.260;2023-05-07T10:33:26;11.60;;;10.50;;
48205;SDS011;33995;48.202;16.260;2023-05-07T10:35:58;10.13;;;9.23;;
48205;SDS011;33995;48.202;16.260;2023-05-07T10:38:32;9.80;;;8.97;;
48205;SDS011;33995;48.202;16.260;2023-05-07T10:41:01;9.40;;;8.50;;
48205;SDS011;33995;48.202;16.260;2023-05-07T10:43:42;9.60;;;8.80;;
48205;SDS011;33995;48.202;16.260;2023-05-07T10:47:25;10.30;;;9.40;;
48205;SDS011;33995;48.202;16.260;2023-05-07T10:53:41;9.23;;;8.40;;
48205;SDS011;33995;48.202;16.260;2023-05-07T11:02:19;9.87;;;8.97;;
48205;SDS011;33995;48.202;16.260;2023-05-07T11:05:23;8.50;;;7.80;;
48205;SDS011;33995;48.202;16.260;2023-05-07T11:08:10;9.30;;;8.50;;
48205;SDS011;33995;48.202;16.260;2023-05-07T11:10:52;9.20;;;8.40;;
48205;SDS011;33995;48.202;16.260;2023-05-07T11:16:41;7.83;;;7.17;;
48205;SDS011;33995;48.202;16.260;2023-05-07T11:19:47;9.00;;;8.17;;
48205;SDS011;33995;48.202;16.260;2023-05-07T11:22:56;10.20;;;9.30;;
48205;SDS011;33995;48.202;16.260;2023-05-07T11:25:34;8.63;;;7.83;;
48205;SDS011;33995;48.202;16.260;2023-05-07T11:28:18;8.97;;;8.27;;
48205;SDS011;33995;48.202;16.260;2023-05-07T11:30:58;10.60;;;9.60;;
48205;SDS011;33995;48.202;16.260;2023-05-07T11:33:33;11.00;;;9.60;;
48205;SDS011;33995;48.202;16.260;2023-05-07T11:36:04;10.67;;;9.77;;
48205;SDS011;33995;48.202;16.260;2023-05-07T11:38:51;10.30;;;9.40;;
48205;SDS011;33995;48.202;16.260;2023-05-07T11:41:18;10.10;;;9.20;;
48205;SDS011;33995;48.202;16.260;2023-05-07T11:43:53;9.30;;;8.40;;
48205;SDS011;33995;48.202;16.260;2023-05-07T11:47:18;9.60;;;8.77;;
48205;SDS011;33995;48.202;16.260;2023-05-07T11:49:47;9.17;;;8.47;;
48205;SDS011;33995;48.202;16.260;2023-05-07T11:53:35;7.87;;;7.17;;
48205;SDS011;33995;48.202;16.260;2023-05-07T11:56:08;9.50;;;8.70;;
48205;SDS011;33995;48.202;16.260;2023-05-07T11:58:41;7.50;;;6.80;;
48205;SDS011;33995;48.202;16.260;2023-05-07T12:04:04;8.20;;;7.40;;
48205;SDS011;33995;48.202;16.260;2023-05-07T12:06:35;8.90;;;8.10;;
48205;SDS011;33995;48.202;16.260;2023-05-07T12:09:06;6.77;;;6.23;;
48205;SDS011;33995;48.202;16.260;2023-05-07T12:11:40;8.50;;;7.70;;
48205;SDS011;33995;48.202;16.260;2023-05-07T12:14:50;9.60;;;8.70;;
48205;SDS011;33995;48.202;16.260;2023-05-07T12:17:17;9.17;;;8.37;;
48205;SDS011;33995;48.202;16.260;2023-05-07T12:19:45;9.33;;;8.57;;
48205;SDS011;33995;48.202;16.260;2023-05-07T12:22:13;8.90;;;8.10;;
48205;SDS011;33995;48.202;16.260;2023-05-07T12:27:14;9.50;;;8.70;;
48205;SDS011;33995;48.202;16.260;2023-05-07T12:29:49;9.30;;;8.50;;
48205;SDS011;33995;48.202;16.260;2023-05-07T12:32:18;8.97;;;8.17;;
48205;SDS011;33995;48.202;16.260;2023-05-07T12:34:50;8.27;;;7.57;;
48205;SDS011;33995;48.202;16.260;2023-05-07T12:37:40;7.17;;;6.47;;
48205;SDS011;33995;48.202;16.260;2023-05-07T12:40:09;7.50;;;6.80;;
48205;SDS011;33995;48.202;16.260;2023-05-07T12:42:59;8.63;;;7.93;;
48205;SDS011;33995;48.202;16.260;2023-05-07T12:45:27;7.17;;;6.57;;
48205;SDS011;33995;48.202;16.260;2023-05-07T12:47:54;6.87;;;6.27;;
48205;SDS011;33995;48.202;16.260;2023-05-07T12:50:22;8.70;;;7.80;;
48205;SDS011;33995;48.202;16.260;2023-05-07T12:53:10;7.30;;;6.60;;
48205;SDS011;33995;48.202;16.260;2023-05-07T12:55:46;7.73;;;7.10;;
48205;SDS011;33995;48.202;16.260;2023-05-07T12:58:19;7.67;;;6.97;;
48205;SDS011;33995;48.202;16.260;2023-05-07T13:00:48;8.30;;;7.50;;
48205;SDS011;33995;48.202;16.260;2023-05-07T13:03:23;8.23;;;7.53;;
48205;SDS011;33995;48.202;16.260;2023-05-07T13:06:09;6.53;;;6.03;;
48205;SDS011;33995;48.202;16.260;2023-05-07T13:13:00;7.87;;;7.13;;
48205;SDS011;33995;48.202;16.260;2023-05-07T13:15:29;7.50;;;6.90;;
48205;SDS011;33995;48.202;16.260;2023-05-07T13:17:56;7.50;;;6.80;;
48205;SDS011;33995;48.202;16.260;2023-05-07T13:20:23;7.80;;;7.20;;
48205;SDS011;33995;48.202;16.260;2023-05-07T13:22:51;7.67;;;6.97;;
48205;SDS011;33995;48.202;16.260;2023-05-07T13:25:21;6.73;;;6.20;;
48205;SDS011;33995;48.202;16.260;2023-05-07T13:32:12;6.47;;;5.97;;
48205;SDS011;33995;48.202;16.260;2023-05-07T13:34:41;7.50;;;6.90;;
48205;SDS011;33995;48.202;16.260;2023-05-07T13:37:08;7.90;;;7.20;;
48205;SDS011;33995;48.202;16.260;2023-05-07T13:39:38;7.60;;;6.90;;
48205;SDS011;33995;48.202;16.260;2023-05-07T13:43:35;7.67;;;7.07;;
48205;SDS011;33995;48.202;16.260;2023-05-07T13:46:06;6.30;;;5.80;;
48205;SDS011;33995;48.202;16.260;2023-05-07T13:55:57;6.97;;;6.37;;
48205;SDS011;33995;48.202;16.260;2023-05-07T13:58:49;6.10;;;5.60;;
48205;SDS011;33995;48.202;16.260;2023-05-07T14:01:25;6.53;;;6.00;;
48205;SDS011;33995;48.202;16.260;2023-05-07T14:03:53;7.07;;;6.47;;
48205;SDS011;33995;48.202;16.260;2023-05-07T14:06:22;7.10;;;6.50;;
48205;SDS011;33995;48.202;16.260;2023-05-07T14:08:50;6.33;;;5.73;;
48205;SDS011;33995;48.202;16.260;2023-05-07T14:11:17;6.20;;;5.70;;
48205;SDS011;33995;48.202;16.260;2023-05-07T14:13:44;5.70;;;5.23;;
48205;SDS011;33995;48.202;16.260;2023-05-07T14:16:11;6.10;;;5.60;;
48205;SDS011;33995;48.202;16.260;2023-05-07T14:18:38;5.80;;;5.20;;
48205;SDS011;33995;48.202;16.260;2023-05-07T14:21:06;5.17;;;4.77;;
48205;SDS011;33995;48.202;16.260;2023-05-07T14:23:36;5.83;;;5.33;;
48205;SDS011;33995;48.202;16.260;2023-05-07T14:26:03;5.80;;;5.30;;
48205;SDS011;33995;48.202;16.260;2023-05-07T14:28:30;5.63;;;5.17;;
48205;SDS011;33995;48.202;16.260;2023-05-07T14:30:57;5.30;;;4.90;;
48205;SDS011;33995;48.202;16.260;2023-05-07T14:33:26;5.80;;;5.23;;
48205;SDS011;33995;48.202;16.260;2023-05-07T14:35:53;6.00;;;5.50;;
48205;SDS011;33995;48.202;16.260;2023-05-07T14:38:21;6.23;;;5.67;;
48205;SDS011;33995;48.202;16.260;2023-05-07T14:40:48;5.10;;;4.70;;
48205;SDS011;33995;48.202;16.260;2023-05-07T14:43:17;5.07;;;4.67;;
48205;SDS011;33995;48.202;16.260;2023-05-07T14:45:45;5.00;;;4.60;;
48205;SDS011;33995;48.202;16.260;2023-05-07T14:48:13;5.37;;;4.97;;
48205;SDS011;33995;48.202;16.260;2023-05-07T14:50:41;5.33;;;4.93;;
48205;SDS011;33995;48.202;16.260;2023-05-07T14:53:09;5.67;;;5.17;;
48205;SDS011;33995;48.202;16.260;2023-05-07T14:55:36;5.17;;;4.67;;
48205;SDS011;33995;48.202;16.260;2023-05-07T14:58:03;4.83;;;4.43;;
48205;SDS011;33995;48.202;16.260;2023-05-07T15:00:30;5.10;;;4.70;;
48205;SDS011;33995;48.202;16.260;2023-05-07T15:02:57;5.10;;;4.70;;
48205;SDS011;33995;48.202;16.260;2023-05-07T15:05:35;5.23;;;4.73;;
48205;SDS011;33995;48.202;16.260;2023-05-07T15:08:02;4.87;;;4.47;;
48205;SDS011;33995;48.202;16.260;2023-05-07T15:10:29;5.30;;;4.90;;
48205;SDS011;33995;48.202;16.260;2023-05-07T15:12:56;4.97;;;4.57;;
48205;SDS011;33995;48.202;16.260;2023-05-07T15:15:24;4.77;;;4.30;;
48205;SDS011;33995;48.202;16.260;2023-05-07T15:17:53;4.80;;;4.40;;
48205;SDS011;33995;48.202;16.260;2023-05-07T15:20:20;4.20;;;3.80;;
48205;SDS011;33995;48.202;16.260;2023-05-07T15:22:47;4.57;;;4.17;;
48205;SDS011;33995;48.202;16.260;2023-05-07T15:25:14;4.80;;;4.40;;
48205;SDS011;33995;48.202;16.260;2023-05-07T15:27:42;4.67;;;4.27;;
48205;SDS011;33995;48.202;16.260;2023-05-07T15:30:09;4.40;;;4.10;;
48205;SDS011;33995;48.202;16.260;2023-05-07T15:32:41;4.30;;;4.00;;
48205;SDS011;33995;48.202;16.260;2023-05-07T15:35:09;4.53;;;4.13;;
48205;SDS011;33995;48.202;16.260;2023-05-07T15:37:38;4.57;;;4.17;;
48205;SDS011;33995;48.202;16.260;2023-05-07T15:40:06;4.40;;;4.00;;
48205;SDS011;33995;48.202;16.260;2023-05-07T15:42:34;3.70;;;3.40;;
48205;SDS011;33995;48.202;16.260;2023-05-07T15:45:02;3.90;;;3.60;;
48205;SDS011;33995;48.202;16.260;2023-05-07T15:47:30;4.50;;;4.10;;
48205;SDS011;33995;48.202;16.260;2023-05-07T15:50:02;4.40;;;4.07;;
48205;SDS011;33995;48.202;16.260;2023-05-07T15:52:31;3.83;;;3.53;;